sensor_id;sensor_type;location;lat;lon;timestamp;temperature;humidity
20366;DHT22;10341;49.894;8.822;2023-04-23T00:04:36;13.10;99.90
20366;DHT22;10341;49.894;8.822;2023-04-23T00:09:56;13.00;99.90
20366;DHT22;10341;49.894;8.822;2023-04-23T00:15:16;13.00;99.90
20366;DHT22;10341;49.894;8.822;2023-04-23T00:20:38;12.90;99.90
20366;DHT22;10341;49.894;8.822;2023-04-23T00:25:57;12.90;99.90
20366;DHT22;10341;49.894;8.822;2023-04-23T00:31:16;12.90;99.90
20366;DHT22;10341;49.894;8.822;2023-04-23T00:36:35;12.80;99.90
20366;DHT22;10341;49.894;8.822;2023-04-23T00:41:55;12.80;99.90
20366;DHT22;10341;49.894;8.822;2023-04-23T00:47:14;12.90;99.90
20366;DHT22;10341;49.894;8.822;2023-04-23T00:52:34;12.80;99.90
20366;DHT22;10341;49.894;8.822;2023-04-23T00:57:54;12.80;99.90
20366;DHT22;10341;49.894;8.822;2023-04-23T01:03:14;12.80;99.90
20366;DHT22;10341;49.894;8.822;2023-04-23T01:08:36;12.70;99.90
20366;DHT22;10341;49.894;8.822;2023-04-23T01:13:57;12.60;99.90
20366;DHT22;10341;49.894;8.822;2023-04-23T01:19:17;12.60;99.90
20366;DHT22;10341;49.894;8.822;2023-04-23T01:24:36;12.60;99.90
20366;DHT22;10341;49.894;8.822;2023-04-23T01:29:56;12.50;99.90
20366;DHT22;10341;49.894;8.822;2023-04-23T01:35:16;12.50;99.90
20366;DHT22;10341;49.894;8.822;2023-04-23T01:40:36;12.50;99.90
20366;DHT22;10341;49.894;8.822;2023-04-23T01:45:56;12.50;99.90
20366;DHT22;10341;49.894;8.822;2023-04-23T01:51:16;12.40;99.90
20366;DHT22;10341;49.894;8.822;2023-04-23T01:56:36;12.40;99.90
20366;DHT22;10341;49.894;8.822;2023-04-23T02:01:55;12.40;99.90
20366;DHT22;10341;49.894;8.822;2023-04-23T02:07:14;12.30;99.90
20366;DHT22;10341;49.894;8.822;2023-04-23T02:12:33;12.30;99.90
20366;DHT22;10341;49.894;8.822;2023-04-23T02:17:52;12.30;99.90
20366;DHT22;10341;49.894;8.822;2023-04-23T02:23:11;12.30;99.90
20366;DHT22;10341;49.894;8.822;2023-04-23T02:28:31;12.30;99.90
20366;DHT22;10341;49.894;8.822;2023-04-23T02:33:50;12.30;99.90
20366;DHT22;10341;49.894;8.822;2023-04-23T02:39:10;12.30;99.90
20366;DHT22;10341;49.894;8.822;2023-04-23T02:44:29;12.20;99.90
20366;DHT22;10341;49.894;8.822;2023-04-23T02:49:48;12.20;99.90
20366;DHT22;10341;49.894;8.822;2023-04-23T02:55:08;12.20;99.90
20366;DHT22;10341;49.894;8.822;2023-04-23T03:00:28;12.10;99.90
20366;DHT22;10341;49.894;8.822;2023-04-23T03:05:48;12.20;99.90
20366;DHT22;10341;49.894;8.822;2023-04-23T03:11:07;12.10;99.90
20366;DHT22;10341;49.894;8.822;2023-04-23T03:16:28;12.10;99.90
20366;DHT22;10341;49.894;8.822;2023-04-23T03:21:47;12.20;99.90
20366;DHT22;10341;49.894;8.822;2023-04-23T03:27:07;12.10;99.90
20366;DHT22;10341;49.894;8.822;2023-04-23T03:32:26;12.10;99.90
20366;DHT22;10341;49.894;8.822;2023-04-23T03:37:45;12.10;99.90
20366;DHT22;10341;49.894;8.822;2023-04-23T03:43:06;12.10;99.90
20366;DHT22;10341;49.894;8.822;2023-04-23T03:48:51;12.00;99.90
20366;DHT22;10341;49.894;8.822;2023-04-23T03:54:17;12.00;99.90
20366;DHT22;10341;49.894;8.822;2023-04-23T04:00:00;11.90;99.90
20366;DHT22;10341;49.894;8.822;2023-04-23T04:05:20;11.90;99.90
20366;DHT22;10341;49.894;8.822;2023-04-23T04:10:39;11.90;99.90
20366;DHT22;10341;49.894;8.822;2023-04-23T04:15:59;11.80;99.90
20366;DHT22;10341;49.894;8.822;2023-04-23T04:21:18;11.80;99.90
20366;DHT22;10341;49.894;8.822;2023-04-23T04:26:37;11.80;99.90
20366;DHT22;10341;49.894;8.822;2023-04-23T04:31:58;11.80;99.90
20366;DHT22;10341;49.894;8.822;2023-04-23T04:37:18;11.80;99.90
20366;DHT22;10341;49.894;8.822;2023-04-23T04:42:38;11.80;99.90
20366;DHT22;10341;49.894;8.822;2023-04-23T04:47:57;11.80;99.90
20366;DHT22;10341;49.894;8.822;2023-04-23T04:53:16;11.80;99.90
20366;DHT22;10341;49.894;8.822;2023-04-23T04:58:35;11.80;99.90
20366;DHT22;10341;49.894;8.822;2023-04-23T05:03:56;11.70;99.90
20366;DHT22;10341;49.894;8.822;2023-04-23T05:09:15;11.70;99.90
20366;DHT22;10341;49.894;8.822;2023-04-23T05:14:35;11.80;99.90
20366;DHT22;10341;49.894;8.822;2023-04-23T05:19:54;11.90;99.90
20366;DHT22;10341;49.894;8.822;2023-04-23T05:25:13;12.10;99.90
20366;DHT22;10341;49.894;8.822;2023-04-23T05:30:33;12.30;99.90
20366;DHT22;10341;49.894;8.822;2023-04-23T05:35:52;12.40;99.90
20366;DHT22;10341;49.894;8.822;2023-04-23T05:41:11;12.50;99.90
20366;DHT22;10341;49.894;8.822;2023-04-23T05:46:31;12.50;99.90
20366;DHT22;10341;49.894;8.822;2023-04-23T05:51:50;12.50;99.90
20366;DHT22;10341;49.894;8.822;2023-04-23T05:57:10;12.60;99.90
20366;DHT22;10341;49.894;8.822;2023-04-23T06:02:30;12.50;99.90
20366;DHT22;10341;49.894;8.822;2023-04-23T06:07:49;12.50;99.90
20366;DHT22;10341;49.894;8.822;2023-04-23T06:13:08;12.70;99.90
20366;DHT22;10341;49.894;8.822;2023-04-23T06:18:28;12.90;99.90
20366;DHT22;10341;49.894;8.822;2023-04-23T06:23:48;13.20;99.90
20366;DHT22;10341;49.894;8.822;2023-04-23T06:29:07;13.60;99.90
20366;DHT22;10341;49.894;8.822;2023-04-23T06:34:36;13.90;99.90
20366;DHT22;10341;49.894;8.822;2023-04-23T06:39:56;14.30;99.90
20366;DHT22;10341;49.894;8.822;2023-04-23T06:45:16;14.30;99.90
20366;DHT22;10341;49.894;8.822;2023-04-23T06:50:35;14.30;99.90
20366;DHT22;10341;49.894;8.822;2023-04-23T06:55:54;14.50;99.90
20366;DHT22;10341;49.894;8.822;2023-04-23T07:01:14;14.90;99.90
20366;DHT22;10341;49.894;8.822;2023-04-23T07:06:33;15.00;99.90
20366;DHT22;10341;49.894;8.822;2023-04-23T07:11:52;15.30;99.90
20366;DHT22;10341;49.894;8.822;2023-04-23T07:17:12;15.60;99.90
20366;DHT22;10341;49.894;8.822;2023-04-23T07:22:31;16.30;99.90
20366;DHT22;10341;49.894;8.822;2023-04-23T07:27:52;16.30;99.90
20366;DHT22;10341;49.894;8.822;2023-04-23T07:33:12;16.10;99.90
20366;DHT22;10341;49.894;8.822;2023-04-23T07:38:31;16.40;99.90
20366;DHT22;10341;49.894;8.822;2023-04-23T07:43:51;16.40;99.90
20366;DHT22;10341;49.894;8.822;2023-04-23T07:49:10;17.00;99.90
20366;DHT22;10341;49.894;8.822;2023-04-23T07:54:29;17.50;99.90
20366;DHT22;10341;49.894;8.822;2023-04-23T07:59:48;17.20;99.90
20366;DHT22;10341;49.894;8.822;2023-04-23T08:05:08;17.10;99.90
20366;DHT22;10341;49.894;8.822;2023-04-23T08:10:27;16.90;99.90
20366;DHT22;10341;49.894;8.822;2023-04-23T08:15:47;16.50;99.90
20366;DHT22;10341;49.894;8.822;2023-04-23T08:21:09;17.00;99.90
20366;DHT22;10341;49.894;8.822;2023-04-23T08:26:31;17.60;99.90
20366;DHT22;10341;49.894;8.822;2023-04-23T08:31:50;17.80;99.90
20366;DHT22;10341;49.894;8.822;2023-04-23T08:37:09;19.10;99.90
20366;DHT22;10341;49.894;8.822;2023-04-23T08:42:49;20.10;99.90
20366;DHT22;10341;49.894;8.822;2023-04-23T08:48:09;21.00;99.90
20366;DHT22;10341;49.894;8.822;2023-04-23T08:53:29;20.50;99.90
20366;DHT22;10341;49.894;8.822;2023-04-23T08:58:50;19.50;99.90
20366;DHT22;10341;49.894;8.822;2023-04-23T09:04:10;19.70;99.90
20366;DHT22;10341;49.894;8.822;2023-04-23T09:09:30;19.80;99.90
20366;DHT22;10341;49.894;8.822;2023-04-23T09:14:50;19.00;99.90
20366;DHT22;10341;49.894;8.822;2023-04-23T09:20:13;20.30;99.90
20366;DHT22;10341;49.894;8.822;2023-04-23T09:25:33;23.70;99.90
20366;DHT22;10341;49.894;8.822;2023-04-23T09:30:52;23.00;98.10
20366;DHT22;10341;49.894;8.822;2023-04-23T09:36:14;20.70;99.90
20366;DHT22;10341;49.894;8.822;2023-04-23T09:41:33;21.90;99.90
20366;DHT22;10341;49.894;8.822;2023-04-23T09:46:52;22.60;98.70
20366;DHT22;10341;49.894;8.822;2023-04-23T09:52:11;23.80;97.60
20366;DHT22;10341;49.894;8.822;2023-04-23T09:57:37;25.10;95.90
20366;DHT22;10341;49.894;8.822;2023-04-23T10:02:58;22.90;95.70
20366;DHT22;10341;49.894;8.822;2023-04-23T10:08:18;20.90;98.30
20366;DHT22;10341;49.894;8.822;2023-04-23T10:13:37;20.20;98.90
20366;DHT22;10341;49.894;8.822;2023-04-23T10:18:58;19.90;99.90
20366;DHT22;10341;49.894;8.822;2023-04-23T10:24:23;19.50;99.90
20366;DHT22;10341;49.894;8.822;2023-04-23T10:29:43;19.30;99.90
20366;DHT22;10341;49.894;8.822;2023-04-23T10:35:03;18.90;99.90
20366;DHT22;10341;49.894;8.822;2023-04-23T10:40:23;19.10;99.90
20366;DHT22;10341;49.894;8.822;2023-04-23T10:45:45;20.60;97.90
20366;DHT22;10341;49.894;8.822;2023-04-23T10:51:04;22.80;95.40
20366;DHT22;10341;49.894;8.822;2023-04-23T10:56:26;22.90;93.10
20366;DHT22;10341;49.894;8.822;2023-04-23T11:01:47;22.90;92.60
20366;DHT22;10341;49.894;8.822;2023-04-23T11:07:08;22.30;93.90
20366;DHT22;10341;49.894;8.822;2023-04-23T11:23:28;23.50;91.50
20366;DHT22;10341;49.894;8.822;2023-04-23T11:28:51;22.60;93.30
20366;DHT22;10341;49.894;8.822;2023-04-23T11:34:11;21.80;93.20
20366;DHT22;10341;49.894;8.822;2023-04-23T11:39:31;22.10;94.30
20366;DHT22;10341;49.894;8.822;2023-04-23T11:44:51;23.70;91.90
20366;DHT22;10341;49.894;8.822;2023-04-23T11:50:18;25.60;88.90
20366;DHT22;10341;49.894;8.822;2023-04-23T11:55:38;25.60;86.60
20366;DHT22;10341;49.894;8.822;2023-04-23T12:01:01;23.40;90.00
20366;DHT22;10341;49.894;8.822;2023-04-23T12:06:21;22.10;91.70
20366;DHT22;10341;49.894;8.822;2023-04-23T12:11:42;22.40;90.40
20366;DHT22;10341;49.894;8.822;2023-04-23T12:17:08;23.50;89.00
20366;DHT22;10341;49.894;8.822;2023-04-23T12:22:28;23.70;90.10
20366;DHT22;10341;49.894;8.822;2023-04-23T12:27:47;24.20;87.20
20366;DHT22;10341;49.894;8.822;2023-04-23T12:33:10;23.60;86.90
20366;DHT22;10341;49.894;8.822;2023-04-23T12:38:29;24.30;87.80
20366;DHT22;10341;49.894;8.822;2023-04-23T12:43:49;24.70;84.40
20366;DHT22;10341;49.894;8.822;2023-04-23T12:49:09;24.40;80.50
20366;DHT22;10341;49.894;8.822;2023-04-23T12:54:33;24.10;81.50
20366;DHT22;10341;49.894;8.822;2023-04-23T12:59:55;25.60;76.80
20366;DHT22;10341;49.894;8.822;2023-04-23T13:05:15;26.40;78.90
20366;DHT22;10341;49.894;8.822;2023-04-23T13:10:34;26.20;76.70
20366;DHT22;10341;49.894;8.822;2023-04-23T13:15:54;27.30;73.20
20366;DHT22;10341;49.894;8.822;2023-04-23T13:21:13;27.20;70.60
20366;DHT22;10341;49.894;8.822;2023-04-23T13:26:33;25.90;73.50
20366;DHT22;10341;49.894;8.822;2023-04-23T13:31:53;24.00;76.40
20366;DHT22;10341;49.894;8.822;2023-04-23T13:37:13;23.10;80.70
20366;DHT22;10341;49.894;8.822;2023-04-23T13:42:32;22.50;82.90
20366;DHT22;10341;49.894;8.822;2023-04-23T13:47:52;24.10;79.80
20366;DHT22;10341;49.894;8.822;2023-04-23T13:53:12;25.20;75.10
20366;DHT22;10341;49.894;8.822;2023-04-23T13:58:31;24.80;74.90
20366;DHT22;10341;49.894;8.822;2023-04-23T14:03:51;24.10;76.20
20366;DHT22;10341;49.894;8.822;2023-04-23T14:09:10;22.30;83.20
20366;DHT22;10341;49.894;8.822;2023-04-23T14:14:30;21.90;82.80
20366;DHT22;10341;49.894;8.822;2023-04-23T14:19:50;21.20;86.20
20366;DHT22;10341;49.894;8.822;2023-04-23T14:25:15;21.20;84.80
20366;DHT22;10341;49.894;8.822;2023-04-23T14:30:41;21.80;84.40
20366;DHT22;10341;49.894;8.822;2023-04-23T14:36:00;22.60;79.70
20366;DHT22;10341;49.894;8.822;2023-04-23T14:41:19;23.30;78.80
20366;DHT22;10341;49.894;8.822;2023-04-23T14:46:38;23.10;80.80
20366;DHT22;10341;49.894;8.822;2023-04-23T14:51:57;22.30;80.60
20366;DHT22;10341;49.894;8.822;2023-04-23T14:57:16;21.60;83.30
20366;DHT22;10341;49.894;8.822;2023-04-23T15:02:36;21.30;84.10
20366;DHT22;10341;49.894;8.822;2023-04-23T15:07:55;21.40;85.80
20366;DHT22;10341;49.894;8.822;2023-04-23T15:18:34;20.90;86.10
20366;DHT22;10341;49.894;8.822;2023-04-23T15:23:54;20.80;87.00
20366;DHT22;10341;49.894;8.822;2023-04-23T15:29:13;20.30;87.40
20366;DHT22;10341;49.894;8.822;2023-04-23T15:34:32;20.00;90.20
20366;DHT22;10341;49.894;8.822;2023-04-23T15:39:51;19.80;90.30
20366;DHT22;10341;49.894;8.822;2023-04-23T15:45:11;19.90;91.20
20366;DHT22;10341;49.894;8.822;2023-04-23T15:50:30;20.10;90.70
20366;DHT22;10341;49.894;8.822;2023-04-23T15:55:50;20.00;89.60
20366;DHT22;10341;49.894;8.822;2023-04-23T16:01:09;20.00;89.60
20366;DHT22;10341;49.894;8.822;2023-04-23T16:06:29;19.80;91.30
20366;DHT22;10341;49.894;8.822;2023-04-23T16:11:51;19.60;91.90
20366;DHT22;10341;49.894;8.822;2023-04-23T16:17:11;19.40;91.70
20366;DHT22;10341;49.894;8.822;2023-04-23T16:22:30;19.20;92.90
20366;DHT22;10341;49.894;8.822;2023-04-23T16:27:49;19.00;93.40
20366;DHT22;10341;49.894;8.822;2023-04-23T16:33:08;18.90;93.80
20366;DHT22;10341;49.894;8.822;2023-04-23T16:38:28;18.80;92.40
20366;DHT22;10341;49.894;8.822;2023-04-23T16:43:47;18.40;96.10
20366;DHT22;10341;49.894;8.822;2023-04-23T16:49:06;17.10;99.90
20366;DHT22;10341;49.894;8.822;2023-04-23T16:54:26;16.00;99.90
20366;DHT22;10341;49.894;8.822;2023-04-23T16:59:45;15.40;99.90
20366;DHT22;10341;49.894;8.822;2023-04-23T17:05:05;15.00;99.90
20366;DHT22;10341;49.894;8.822;2023-04-23T17:10:24;14.80;99.90
20366;DHT22;10341;49.894;8.822;2023-04-23T17:15:43;14.60;99.90
20366;DHT22;10341;49.894;8.822;2023-04-23T17:21:03;14.50;99.90
20366;DHT22;10341;49.894;8.822;2023-04-23T17:26:22;14.40;99.90
20366;DHT22;10341;49.894;8.822;2023-04-23T17:31:42;14.30;99.90
20366;DHT22;10341;49.894;8.822;2023-04-23T17:37:02;14.30;99.90
20366;DHT22;10341;49.894;8.822;2023-04-23T17:42:21;14.20;99.90
20366;DHT22;10341;49.894;8.822;2023-04-23T17:47:41;14.20;99.90
20366;DHT22;10341;49.894;8.822;2023-04-23T17:53:00;14.20;99.90
20366;DHT22;10341;49.894;8.822;2023-04-23T17:58:20;14.10;99.90
20366;DHT22;10341;49.894;8.822;2023-04-23T18:03:39;13.90;99.90
20366;DHT22;10341;49.894;8.822;2023-04-23T18:08:59;13.90;99.90
20366;DHT22;10341;49.894;8.822;2023-04-23T18:14:19;13.90;99.90
20366;DHT22;10341;49.894;8.822;2023-04-23T18:19:38;13.90;99.90
20366;DHT22;10341;49.894;8.822;2023-04-23T18:24:57;13.80;99.90
20366;DHT22;10341;49.894;8.822;2023-04-23T18:30:17;13.80;99.90
20366;DHT22;10341;49.894;8.822;2023-04-23T18:35:41;13.60;99.90
20366;DHT22;10341;49.894;8.822;2023-04-23T18:41:01;13.30;99.90
20366;DHT22;10341;49.894;8.822;2023-04-23T18:46:23;13.10;99.90
20366;DHT22;10341;49.894;8.822;2023-04-23T18:51:43;13.00;99.90
20366;DHT22;10341;49.894;8.822;2023-04-23T18:57:03;12.90;99.90
20366;DHT22;10341;49.894;8.822;2023-04-23T19:02:22;12.80;99.90
20366;DHT22;10341;49.894;8.822;2023-04-23T19:07:42;12.70;99.90
20366;DHT22;10341;49.894;8.822;2023-04-23T19:13:02;12.60;99.90
20366;DHT22;10341;49.894;8.822;2023-04-23T19:18:21;12.50;99.90
20366;DHT22;10341;49.894;8.822;2023-04-23T19:23:41;12.40;99.90
20366;DHT22;10341;49.894;8.822;2023-04-23T19:29:00;12.40;99.90
20366;DHT22;10341;49.894;8.822;2023-04-23T19:34:20;12.40;99.90
20366;DHT22;10341;49.894;8.822;2023-04-23T19:39:39;12.30;99.90
20366;DHT22;10341;49.894;8.822;2023-04-23T19:44:59;12.20;99.90
20366;DHT22;10341;49.894;8.822;2023-04-23T19:50:21;12.10;99.90
20366;DHT22;10341;49.894;8.822;2023-04-23T19:55:41;12.00;99.90
20366;DHT22;10341;49.894;8.822;2023-04-23T20:01:00;11.90;99.90
20366;DHT22;10341;49.894;8.822;2023-04-23T20:06:20;11.90;99.90
20366;DHT22;10341;49.894;8.822;2023-04-23T20:11:40;11.80;99.90
20366;DHT22;10341;49.894;8.822;2023-04-23T20:16:59;11.80;99.90
20366;DHT22;10341;49.894;8.822;2023-04-23T20:22:19;12.00;99.90
20366;DHT22;10341;49.894;8.822;2023-04-23T20:27:38;12.20;99.90
20366;DHT22;10341;49.894;8.822;2023-04-23T20:32:58;12.40;99.90
20366;DHT22;10341;49.894;8.822;2023-04-23T20:38:17;12.50;99.90
20366;DHT22;10341;49.894;8.822;2023-04-23T20:43:41;12.60;99.90
20366;DHT22;10341;49.894;8.822;2023-04-23T20:49:01;12.70;99.90
20366;DHT22;10341;49.894;8.822;2023-04-23T20:54:21;12.70;99.90
20366;DHT22;10341;49.894;8.822;2023-04-23T20:59:40;12.70;99.90
20366;DHT22;10341;49.894;8.822;2023-04-23T21:05:00;12.70;99.90
20366;DHT22;10341;49.894;8.822;2023-04-23T21:10:19;12.80;99.90
20366;DHT22;10341;49.894;8.822;2023-04-23T21:15:38;12.80;99.90
20366;DHT22;10341;49.894;8.822;2023-04-23T21:20:58;12.70;99.90
20366;DHT22;10341;49.894;8.822;2023-04-23T21:26:18;12.70;99.90
20366;DHT22;10341;49.894;8.822;2023-04-23T21:31:45;12.80;99.90
20366;DHT22;10341;49.894;8.822;2023-04-23T21:37:04;12.70;99.90
20366;DHT22;10341;49.894;8.822;2023-04-23T21:42:23;12.60;99.90
20366;DHT22;10341;49.894;8.822;2023-04-23T21:47:43;12.50;99.90
20366;DHT22;10341;49.894;8.822;2023-04-23T21:53:02;12.40;99.90
20366;DHT22;10341;49.894;8.822;2023-04-23T21:58:21;12.30;99.90
20366;DHT22;10341;49.894;8.822;2023-04-23T22:03:40;12.30;99.90
20366;DHT22;10341;49.894;8.822;2023-04-23T22:09:04;12.20;99.90
20366;DHT22;10341;49.894;8.822;2023-04-23T22:14:23;12.10;99.90
20366;DHT22;10341;49.894;8.822;2023-04-23T22:19:42;12.10;99.90
20366;DHT22;10341;49.894;8.822;2023-04-23T22:25:03;12.10;99.90
20366;DHT22;10341;49.894;8.822;2023-04-23T22:30:26;12.10;99.90
20366;DHT22;10341;49.894;8.822;2023-04-23T22:35:45;12.10;99.90
20366;DHT22;10341;49.894;8.822;2023-04-23T22:41:04;11.90;99.90
20366;DHT22;10341;49.894;8.822;2023-04-23T22:46:23;11.90;99.90
20366;DHT22;10341;49.894;8.822;2023-04-23T22:51:43;11.90;99.90
20366;DHT22;10341;49.894;8.822;2023-04-23T22:57:02;11.90;99.90
20366;DHT22;10341;49.894;8.822;2023-04-23T23:02:21;11.90;99.90
20366;DHT22;10341;49.894;8.822;2023-04-23T23:07:40;11.80;99.90
20366;DHT22;10341;49.894;8.822;2023-04-23T23:12:59;11.80;99.90
20366;DHT22;10341;49.894;8.822;2023-04-23T23:18:19;11.80;99.90
20366;DHT22;10341;49.894;8.822;2023-04-23T23:23:38;11.70;99.90
20366;DHT22;10341;49.894;8.822;2023-04-23T23:28:58;11.70;99.90
20366;DHT22;10341;49.894;8.822;2023-04-23T23:34:17;11.70;99.90
20366;DHT22;10341;49.894;8.822;2023-04-23T23:39:37;11.60;99.90
20366;DHT22;10341;49.894;8.822;2023-04-23T23:44:56;11.50;99.90
20366;DHT22;10341;49.894;8.822;2023-04-23T23:50:16;11.50;99.90
20366;DHT22;10341;49.894;8.822;2023-04-23T23:55:35;11.60;99.90
